Flight Track Log - Related Links

Times and Time Zones

All times are in EDT time to prevent confusion due to time zone crossing. See the KLM1072 flight status page for this flight to view local times or setup timezone preferences in your user account.

Time Position Orientation Groundspeed Altitude Reporting Facility
EDT Latitude Longitude Course Direction KTS MPH feet Rate Location/Type
Sun 01:07:00 AM 53.2500 -1.4090 101° East  Level Estimated
Sun 01:08:00 AM 53.2393 -1.3226 102° East  Level Estimated
Sun 01:09:00 AM 53.2285 -1.2363 102° East  Level Estimated
Sun 01:10:00 AM 53.2177 -1.1500 102° East  Level Estimated
Sun 01:11:00 AM 53.2068 -1.0638 102° East  Level Estimated
Sun 01:12:00 AM 53.1958 -0.9776 102° East  Level Estimated
Sun 01:13:00 AM 53.1848 -0.8914 102° East  Level Estimated
Sun 01:14:00 AM 53.1737 -0.8053 102° East  Level Estimated
Sun 01:15:00 AM 53.1626 -0.7193 102° East  Level Estimated
Sun 01:16:00 AM 53.1513 -0.6333 102° East  Level Estimated
Sun 01:17:00 AM 53.1401 -0.5473 102° East  Level Estimated
Sun 01:18:00 AM 53.1287 -0.4614 102° East  Level Estimated
Sun 01:19:00 AM 53.1173 -0.3755 102° East  Level Estimated
Sun 01:20:00 AM 53.1059 -0.2897 103° East  Level Estimated
Sun 01:21:00 AM 53.0944 -0.2039 103° East  Level Estimated
Sun 01:22:00 AM 53.0828 -0.1182 103° East  Level Estimated
Sun 01:23:00 AM 53.0711 -0.0325 103° East  Level Estimated
Sun 01:24:00 AM 53.0594 0.0532 103° East  Level Estimated
Sun 01:25:00 AM 53.0476 0.1388 103° East  Level Estimated
Sun 01:26:00 AM 53.0358 0.2243 103° East  Level Estimated
Sun 01:27:00 AM 53.0239 0.3098 103° East  Level Estimated
Sun 01:28:00 AM 53.0120 0.3953 103° East  Level Estimated
Sun 01:29:00 AM 53.0000 0.4807 103° East  Level Estimated
Sun 01:30:00 AM 52.9879 0.5661 103° East  Level Estimated
Sun 01:31:00 AM 52.9702 0.6903 103° East  Level Estimated
Sun 01:32:00 AM 52.9524 0.8144 103° East  Level Estimated
Sun 01:33:00 AM 52.9344 0.9384 103° East  Level Estimated
Sun 01:34:00 AM 52.9164 1.0623 104° East  Level Estimated
Sun 01:35:00 AM 52.8982 1.1861 104° East  Level Estimated
Sun 01:36:00 AM 52.8798 1.3098 104° East  Level Estimated
Sun 01:37:00 AM 52.8614 1.4334 104° East  Level Estimated
Sun 01:38:00 AM 52.8428 1.5569 104° East  Level Estimated
Sun 01:39:00 AM 52.8240 1.6803 104° East  Level Estimated
Sun 01:40:00 AM 52.8052 1.8035 104° East  Level Estimated
Sun 01:41:00 AM 52.7862 1.9267 104° East  Level Estimated
Sun 01:42:00 AM 52.7671 2.0498 104° East  Level Estimated
Sun 01:43:00 AM 52.7479 2.1727 104° East  Level Estimated
Sun 01:44:00 AM 52.7285 2.2956 105° East  Level Estimated
Sun 01:45:00 AM 52.7090 2.4183 105° East  Level Estimated
Sun 01:46:00 AM 52.6894 2.5409 105° East  Level Estimated
Sun 01:47:00 AM 52.6697 2.6634 105° East  Level Estimated
Sun 01:48:00 AM 52.6498 2.7858 105° East  Level Estimated
Sun 01:49:00 AM 52.6298 2.9081 105° East  Level Estimated
Sun 01:50:00 AM 52.6097 3.0303 105° East  Level Estimated
Sun 01:51:00 AM 52.5895 3.1524 105° East  Level Estimated
Sun 01:52:00 AM 52.5691 3.2743 105° East  Level Estimated
Sun 01:53:00 AM 52.5486 3.3962 105° East  Level Estimated
Sun 01:54:00 AM 52.5280 3.5179 106° East  Level Estimated
Sun 01:55:00 AM 52.5073 3.6395 106° East  Level Estimated
Sun 01:56:00 AM 52.4864 3.7610 106° East  Level Estimated
Sun 01:57:00 AM 52.4654 3.8824 106° East  Level Estimated
Sun 01:58:00 AM 52.4443 4.0036 106° East  Level Estimated
Sun 01:59:00 AM 52.4230 4.1248 106° East  Level Estimated
Sun 02:00:00 AM 52.4017 4.2458 106° East  Level Estimated
Sun 02:01:00 AM 52.3802 4.3667 106° East  Level Estimated
Sun 02:02:00 AM 52.3586 4.4875 106° East  Level Estimated
Sun 02:03:00 AM 52.3369 4.6082 106° East  Level Estimated
Sun 02:04:00 AM 52.3158 4.7247 106° East  Level Estimated
Sun 02:05:00 AM 52.3086 4.7639 107° East  Level Estimated
Sun 02:06:00 AM 52.3086 4.7639 348° North  Level Estimated
Sun 02:07:00 AM 52.3086 4.7639 348° North  Level Estimated
Sun 02:08:00 AM 52.3086 4.7639 348° North  Level Estimated
Sun 02:09:00 AM 52.3086 4.7639 348° North  Level Estimated
Sun 02:10:00 AM 52.3086 4.7639 348° North  Level Estimated
Sun 02:11:00 AM 52.3086 4.7639 348° North  Level Estimated
Sun 02:12:00 AM 52.3086 4.7639 348° North  Level Estimated

Login

Don't have an account? Register now (free) for customized features, flight alerts, and more!